sensor_id;sensor_type;location;lat;lon;timestamp;P1;durP1;ratioP1;P2;durP2;ratioP2
71462;SDS011;59266;52.608;13.260;2024-01-30T00:01:53;21.58;;;7.55;;
71462;SDS011;59266;52.608;13.260;2024-01-30T00:04:20;16.42;;;7.60;;
71462;SDS011;59266;52.608;13.260;2024-01-30T00:06:46;21.77;;;8.88;;
71462;SDS011;59266;52.608;13.260;2024-01-30T00:09:13;22.23;;;9.88;;
71462;SDS011;59266;52.608;13.260;2024-01-30T00:11:40;21.70;;;8.82;;
71462;SDS011;59266;52.608;13.260;2024-01-30T00:14:06;20.85;;;9.40;;
71462;SDS011;59266;52.608;13.260;2024-01-30T00:16:33;17.83;;;8.20;;
71462;SDS011;59266;52.608;13.260;2024-01-30T00:19:00;19.60;;;8.43;;
71462;SDS011;59266;52.608;13.260;2024-01-30T00:21:28;18.15;;;8.05;;
71462;SDS011;59266;52.608;13.260;2024-01-30T00:23:55;19.15;;;8.77;;
71462;SDS011;59266;52.608;13.260;2024-01-30T00:26:22;16.90;;;7.78;;
71462;SDS011;59266;52.608;13.260;2024-01-30T00:28:49;21.65;;;8.20;;
71462;SDS011;59266;52.608;13.260;2024-01-30T00:31:15;18.92;;;8.60;;
71462;SDS011;59266;52.608;13.260;2024-01-30T00:33:42;18.60;;;7.63;;
71462;SDS011;59266;52.608;13.260;2024-01-30T00:36:09;18.63;;;7.55;;
71462;SDS011;59266;52.608;13.260;2024-01-30T00:38:37;15.07;;;7.00;;
71462;SDS011;59266;52.608;13.260;2024-01-30T00:41:03;18.13;;;7.30;;
71462;SDS011;59266;52.608;13.260;2024-01-30T00:43:30;18.50;;;6.70;;
71462;SDS011;59266;52.608;13.260;2024-01-30T00:45:58;19.00;;;7.35;;
71462;SDS011;59266;52.608;13.260;2024-01-30T00:48:29;15.70;;;6.25;;
71462;SDS011;59266;52.608;13.260;2024-01-30T00:50:56;18.50;;;7.22;;
71462;SDS011;59266;52.608;13.260;2024-01-30T00:53:23;15.70;;;6.53;;
71462;SDS011;59266;52.608;13.260;2024-01-30T00:55:50;17.48;;;6.55;;
71462;SDS011;59266;52.608;13.260;2024-01-30T00:58:16;16.42;;;6.25;;
71462;SDS011;59266;52.608;13.260;2024-01-30T01:00:48;17.20;;;5.70;;
71462;SDS011;59266;52.608;13.260;2024-01-30T01:03:15;15.18;;;6.07;;
71462;SDS011;59266;52.608;13.260;2024-01-30T01:05:42;19.35;;;6.25;;
71462;SDS011;59266;52.608;13.260;2024-01-30T01:08:08;16.88;;;6.47;;
71462;SDS011;59266;52.608;13.260;2024-01-30T01:10:36;16.80;;;6.10;;
71462;SDS011;59266;52.608;13.260;2024-01-30T01:13:02;13.73;;;5.97;;
71462;SDS011;59266;52.608;13.260;2024-01-30T01:15:29;14.25;;;5.95;;
71462;SDS011;59266;52.608;13.260;2024-01-30T01:17:56;14.80;;;6.45;;
71462;SDS011;59266;52.608;13.260;2024-01-30T01:20:22;14.40;;;6.00;;
71462;SDS011;59266;52.608;13.260;2024-01-30T01:22:49;14.57;;;5.53;;
71462;SDS011;59266;52.608;13.260;2024-01-30T01:25:16;15.98;;;5.70;;
71462;SDS011;59266;52.608;13.260;2024-01-30T01:27:42;17.10;;;5.78;;
71462;SDS011;59266;52.608;13.260;2024-01-30T01:30:10;15.05;;;5.63;;
71462;SDS011;59266;52.608;13.260;2024-01-30T01:32:40;14.30;;;5.90;;
71462;SDS011;59266;52.608;13.260;2024-01-30T01:35:11;19.00;;;6.15;;
71462;SDS011;59266;52.608;13.260;2024-01-30T01:37:38;16.77;;;6.20;;
71462;SDS011;59266;52.608;13.260;2024-01-30T01:40:05;16.38;;;6.13;;
71462;SDS011;59266;52.608;13.260;2024-01-30T01:42:32;16.25;;;6.18;;
71462;SDS011;59266;52.608;13.260;2024-01-30T01:44:59;17.77;;;6.07;;
71462;SDS011;59266;52.608;13.260;2024-01-30T01:47:26;16.45;;;6.47;;
71462;SDS011;59266;52.608;13.260;2024-01-30T01:49:52;12.65;;;5.20;;
71462;SDS011;59266;52.608;13.260;2024-01-30T01:52:19;15.35;;;5.97;;
71462;SDS011;59266;52.608;13.260;2024-01-30T01:54:45;17.27;;;5.88;;
71462;SDS011;59266;52.608;13.260;2024-01-30T01:57:12;15.75;;;5.72;;
71462;SDS011;59266;52.608;13.260;2024-01-30T01:59:39;14.88;;;6.28;;
71462;SDS011;59266;52.608;13.260;2024-01-30T02:02:06;13.32;;;5.38;;
71462;SDS011;59266;52.608;13.260;2024-01-30T02:04:37;14.10;;;5.78;;
71462;SDS011;59266;52.608;13.260;2024-01-30T02:07:04;17.13;;;6.10;;
71462;SDS011;59266;52.608;13.260;2024-01-30T02:09:33;13.57;;;5.72;;
71462;SDS011;59266;52.608;13.260;2024-01-30T02:11:59;17.80;;;6.35;;
71462;SDS011;59266;52.608;13.260;2024-01-30T02:14:26;13.50;;;5.60;;
71462;SDS011;59266;52.608;13.260;2024-01-30T02:16:56;16.17;;;5.90;;
71462;SDS011;59266;52.608;13.260;2024-01-30T02:19:23;14.15;;;5.38;;
71462;SDS011;59266;52.608;13.260;2024-01-30T02:21:50;13.52;;;5.40;;
71462;SDS011;59266;52.608;13.260;2024-01-30T02:24:16;15.95;;;5.28;;
71462;SDS011;59266;52.608;13.260;2024-01-30T02:26:43;18.90;;;5.97;;
71462;SDS011;59266;52.608;13.260;2024-01-30T02:29:13;21.95;;;5.28;;
71462;SDS011;59266;52.608;13.260;2024-01-30T02:31:40;13.95;;;6.07;;
71462;SDS011;59266;52.608;13.260;2024-01-30T02:34:06;16.58;;;5.35;;
71462;SDS011;59266;52.608;13.260;2024-01-30T02:36:33;14.45;;;5.82;;
71462;SDS011;59266;52.608;13.260;2024-01-30T02:39:00;18.27;;;6.35;;
71462;SDS011;59266;52.608;13.260;2024-01-30T02:41:27;18.35;;;5.50;;
71462;SDS011;59266;52.608;13.260;2024-01-30T02:43:53;15.32;;;5.32;;
71462;SDS011;59266;52.608;13.260;2024-01-30T02:46:22;14.95;;;5.15;;
71462;SDS011;59266;52.608;13.260;2024-01-30T02:48:49;13.68;;;5.60;;
71462;SDS011;59266;52.608;13.260;2024-01-30T02:51:16;20.92;;;5.97;;
71462;SDS011;59266;52.608;13.260;2024-01-30T02:53:43;17.45;;;5.43;;
71462;SDS011;59266;52.608;13.260;2024-01-30T02:56:09;16.52;;;5.30;;
71462;SDS011;59266;52.608;13.260;2024-01-30T02:58:39;14.77;;;5.88;;
71462;SDS011;59266;52.608;13.260;2024-01-30T03:01:06;15.57;;;5.45;;
71462;SDS011;59266;52.608;13.260;2024-01-30T03:03:33;18.27;;;5.95;;
71462;SDS011;59266;52.608;13.260;2024-01-30T03:06:02;14.82;;;5.80;;
71462;SDS011;59266;52.608;13.260;2024-01-30T03:08:29;12.73;;;5.13;;
71462;SDS011;59266;52.608;13.260;2024-01-30T03:10:56;20.80;;;5.80;;
71462;SDS011;59266;52.608;13.260;2024-01-30T03:13:22;15.93;;;5.63;;
71462;SDS011;59266;52.608;13.260;2024-01-30T03:15:51;15.23;;;5.38;;
71462;SDS011;59266;52.608;13.260;2024-01-30T03:18:18;12.70;;;5.10;;
71462;SDS011;59266;52.608;13.260;2024-01-30T03:20:44;16.75;;;5.70;;
71462;SDS011;59266;52.608;13.260;2024-01-30T03:23:11;19.77;;;6.75;;
71462;SDS011;59266;52.608;13.260;2024-01-30T03:25:38;17.23;;;5.65;;
71462;SDS011;59266;52.608;13.260;2024-01-30T03:28:04;14.40;;;5.20;;
71462;SDS011;59266;52.608;13.260;2024-01-30T03:30:31;13.80;;;5.10;;
71462;SDS011;59266;52.608;13.260;2024-01-30T03:33:00;13.57;;;5.72;;
71462;SDS011;59266;52.608;13.260;2024-01-30T03:35:29;16.88;;;6.13;;
71462;SDS011;59266;52.608;13.260;2024-01-30T03:37:56;15.68;;;5.85;;
71462;SDS011;59266;52.608;13.260;2024-01-30T03:40:22;15.43;;;5.97;;
71462;SDS011;59266;52.608;13.260;2024-01-30T03:42:49;15.07;;;5.28;;
71462;SDS011;59266;52.608;13.260;2024-01-30T03:45:18;14.05;;;6.28;;
71462;SDS011;59266;52.608;13.260;2024-01-30T03:47:45;14.98;;;6.32;;
71462;SDS011;59266;52.608;13.260;2024-01-30T03:50:12;14.40;;;5.85;;
71462;SDS011;59266;52.608;13.260;2024-01-30T03:52:39;15.88;;;6.00;;
71462;SDS011;59266;52.608;13.260;2024-01-30T03:55:05;19.17;;;5.90;;
71462;SDS011;59266;52.608;13.260;2024-01-30T03:57:32;13.32;;;5.72;;
71462;SDS011;59266;52.608;13.260;2024-01-30T04:00:01;13.00;;;4.97;;
71462;SDS011;59266;52.608;13.260;2024-01-30T04:02:31;14.80;;;6.03;;
71462;SDS011;59266;52.608;13.260;2024-01-30T04:04:58;20.17;;;6.03;;
71462;SDS011;59266;52.608;13.260;2024-01-30T04:07:25;12.85;;;5.45;;
71462;SDS011;59266;52.608;13.260;2024-01-30T04:09:51;15.65;;;5.90;;
71462;SDS011;59266;52.608;13.260;2024-01-30T04:12:18;17.08;;;6.03;;
71462;SDS011;59266;52.608;13.260;2024-01-30T04:14:45;18.73;;;5.97;;
71462;SDS011;59266;52.608;13.260;2024-01-30T04:17:15;16.63;;;5.82;;
71462;SDS011;59266;52.608;13.260;2024-01-30T04:19:41;14.57;;;5.53;;
71462;SDS011;59266;52.608;13.260;2024-01-30T04:22:08;13.07;;;5.55;;
71462;SDS011;59266;52.608;13.260;2024-01-30T04:24:35;17.05;;;6.15;;
71462;SDS011;59266;52.608;13.260;2024-01-30T04:27:01;12.90;;;6.20;;
71462;SDS011;59266;52.608;13.260;2024-01-30T04:29:28;16.95;;;5.95;;
71462;SDS011;59266;52.608;13.260;2024-01-30T04:31:55;19.02;;;6.53;;
71462;SDS011;59266;52.608;13.260;2024-01-30T04:34:21;15.18;;;6.15;;
71462;SDS011;59266;52.608;13.260;2024-01-30T04:36:48;24.75;;;5.40;;
71462;SDS011;59266;52.608;13.260;2024-01-30T04:39:15;12.93;;;5.45;;
71462;SDS011;59266;52.608;13.260;2024-01-30T04:41:41;13.82;;;5.50;;
71462;SDS011;59266;52.608;13.260;2024-01-30T04:44:08;17.52;;;5.97;;
71462;SDS011;59266;52.608;13.260;2024-01-30T04:46:34;17.48;;;6.35;;
71462;SDS011;59266;52.608;13.260;2024-01-30T04:49:01;13.55;;;5.55;;
71462;SDS011;59266;52.608;13.260;2024-01-30T04:51:28;15.30;;;6.50;;
71462;SDS011;59266;52.608;13.260;2024-01-30T04:53:54;16.45;;;5.95;;
71462;SDS011;59266;52.608;13.260;2024-01-30T04:56:21;17.58;;;6.95;;
71462;SDS011;59266;52.608;13.260;2024-01-30T04:58:48;18.08;;;6.18;;
71462;SDS011;59266;52.608;13.260;2024-01-30T05:01:15;20.35;;;6.57;;
71462;SDS011;59266;52.608;13.260;2024-01-30T05:03:42;15.77;;;6.57;;
71462;SDS011;59266;52.608;13.260;2024-01-30T05:06:09;18.30;;;6.60;;
71462;SDS011;59266;52.608;13.260;2024-01-30T05:08:36;17.00;;;6.47;;
71462;SDS011;59266;52.608;13.260;2024-01-30T05:11:08;16.20;;;6.50;;
71462;SDS011;59266;52.608;13.260;2024-01-30T05:13:35;16.90;;;5.93;;
71462;SDS011;59266;52.608;13.260;2024-01-30T05:16:02;17.80;;;6.15;;
71462;SDS011;59266;52.608;13.260;2024-01-30T05:18:30;16.27;;;5.80;;
71462;SDS011;59266;52.608;13.260;2024-01-30T05:20:57;16.35;;;6.22;;
71462;SDS011;59266;52.608;13.260;2024-01-30T05:23:24;14.93;;;6.15;;
71462;SDS011;59266;52.608;13.260;2024-01-30T05:25:51;15.15;;;6.03;;
71462;SDS011;59266;52.608;13.260;2024-01-30T05:28:17;16.42;;;5.90;;
71462;SDS011;59266;52.608;13.260;2024-01-30T05:30:45;16.45;;;6.28;;
71462;SDS011;59266;52.608;13.260;2024-01-30T05:33:12;14.25;;;5.82;;
71462;SDS011;59266;52.608;13.260;2024-01-30T05:35:39;18.20;;;5.82;;
71462;SDS011;59266;52.608;13.260;2024-01-30T05:38:06;18.35;;;5.40;;
71462;SDS011;59266;52.608;13.260;2024-01-30T05:40:33;20.00;;;6.90;;
71462;SDS011;59266;52.608;13.260;2024-01-30T05:42:59;17.88;;;6.75;;
71462;SDS011;59266;52.608;13.260;2024-01-30T05:45:27;16.88;;;6.40;;
71462;SDS011;59266;52.608;13.260;2024-01-30T05:47:54;18.63;;;7.18;;
71462;SDS011;59266;52.608;13.260;2024-01-30T05:50:21;15.95;;;5.97;;
71462;SDS011;59266;52.608;13.260;2024-01-30T05:52:51;14.73;;;6.10;;
71462;SDS011;59266;52.608;13.260;2024-01-30T05:55:18;15.13;;;6.40;;
71462;SDS011;59266;52.608;13.260;2024-01-30T05:57:45;15.20;;;5.93;;
71462;SDS011;59266;52.608;13.260;2024-01-30T06:00:12;18.75;;;6.63;;
71462;SDS011;59266;52.608;13.260;2024-01-30T06:02:39;15.15;;;5.80;;
71462;SDS011;59266;52.608;13.260;2024-01-30T06:05:06;15.45;;;6.38;;
71462;SDS011;59266;52.608;13.260;2024-01-30T06:07:35;15.57;;;6.50;;
71462;SDS011;59266;52.608;13.260;2024-01-30T06:10:03;19.50;;;7.30;;
71462;SDS011;59266;52.608;13.260;2024-01-30T06:12:30;15.68;;;6.70;;
71462;SDS011;59266;52.608;13.260;2024-01-30T06:14:56;16.27;;;7.13;;
71462;SDS011;59266;52.608;13.260;2024-01-30T06:17:23;21.80;;;8.07;;
71462;SDS011;59266;52.608;13.260;2024-01-30T06:19:50;24.02;;;8.88;;
71462;SDS011;59266;52.608;13.260;2024-01-30T06:22:20;24.65;;;10.07;;
71462;SDS011;59266;52.608;13.260;2024-01-30T06:24:46;23.33;;;9.50;;
71462;SDS011;59266;52.608;13.260;2024-01-30T06:27:14;24.33;;;9.25;;
71462;SDS011;59266;52.608;13.260;2024-01-30T06:29:44;21.65;;;8.52;;
71462;SDS011;59266;52.608;13.260;2024-01-30T06:32:12;20.35;;;8.85;;
71462;SDS011;59266;52.608;13.260;2024-01-30T06:34:38;19.52;;;8.27;;
71462;SDS011;59266;52.608;13.260;2024-01-30T06:37:06;22.77;;;9.15;;
71462;SDS011;59266;52.608;13.260;2024-01-30T06:39:33;22.67;;;10.48;;
71462;SDS011;59266;52.608;13.260;2024-01-30T06:42:00;24.83;;;9.98;;
71462;SDS011;59266;52.608;13.260;2024-01-30T06:44:26;19.55;;;9.07;;
71462;SDS011;59266;52.608;13.260;2024-01-30T06:46:55;22.67;;;9.30;;
71462;SDS011;59266;52.608;13.260;2024-01-30T06:49:22;26.25;;;12.30;;
71462;SDS011;59266;52.608;13.260;2024-01-30T06:51:49;25.83;;;10.90;;
71462;SDS011;59266;52.608;13.260;2024-01-30T06:54:15;22.60;;;11.05;;
71462;SDS011;59266;52.608;13.260;2024-01-30T06:56:42;26.35;;;12.15;;
71462;SDS011;59266;52.608;13.260;2024-01-30T06:59:14;23.65;;;10.27;;
71462;SDS011;59266;52.608;13.260;2024-01-30T07:01:41;35.65;;;16.15;;
71462;SDS011;59266;52.608;13.260;2024-01-30T07:04:11;35.03;;;15.68;;
71462;SDS011;59266;52.608;13.260;2024-01-30T07:06:38;35.53;;;16.02;;
71462;SDS011;59266;52.608;13.260;2024-01-30T07:09:05;32.88;;;12.75;;
71462;SDS011;59266;52.608;13.260;2024-01-30T07:11:32;30.73;;;13.23;;
71462;SDS011;59266;52.608;13.260;2024-01-30T07:13:59;39.20;;;15.55;;
71462;SDS011;59266;52.608;13.260;2024-01-30T07:16:26;31.65;;;14.23;;
71462;SDS011;59266;52.608;13.260;2024-01-30T07:18:55;29.42;;;13.30;;
71462;SDS011;59266;52.608;13.260;2024-01-30T07:21:24;28.30;;;11.60;;
71462;SDS011;59266;52.608;13.260;2024-01-30T07:23:57;20.98;;;10.13;;
71462;SDS011;59266;52.608;13.260;2024-01-30T07:26:53;24.52;;;10.48;;
71462;SDS011;59266;52.608;13.260;2024-01-30T07:29:24;24.48;;;10.32;;
71462;SDS011;59266;52.608;13.260;2024-01-30T07:31:50;28.85;;;11.75;;
71462;SDS011;59266;52.608;13.260;2024-01-30T07:34:17;25.52;;;10.10;;
71462;SDS011;59266;52.608;13.260;2024-01-30T07:36:44;20.38;;;9.50;;
71462;SDS011;59266;52.608;13.260;2024-01-30T07:39:18;28.25;;;12.07;;
71462;SDS011;59266;52.608;13.260;2024-01-30T07:41:45;26.75;;;10.05;;
71462;SDS011;59266;52.608;13.260;2024-01-30T07:44:12;21.35;;;9.23;;
71462;SDS011;59266;52.608;13.260;2024-01-30T07:46:38;19.30;;;8.40;;
71462;SDS011;59266;52.608;13.260;2024-01-30T07:49:05;19.88;;;7.70;;
71462;SDS011;59266;52.608;13.260;2024-01-30T07:51:32;19.35;;;7.75;;
71462;SDS011;59266;52.608;13.260;2024-01-30T07:53:59;19.00;;;8.07;;
71462;SDS011;59266;52.608;13.260;2024-01-30T07:56:26;21.48;;;7.45;;
71462;SDS011;59266;52.608;13.260;2024-01-30T07:58:55;19.55;;;7.32;;
71462;SDS011;59266;52.608;13.260;2024-01-30T08:01:22;14.18;;;6.15;;
71462;SDS011;59266;52.608;13.260;2024-01-30T08:03:51;14.82;;;6.40;;
71462;SDS011;59266;52.608;13.260;2024-01-30T08:06:17;17.30;;;6.78;;
71462;SDS011;59266;52.608;13.260;2024-01-30T08:08:46;15.30;;;6.22;;
71462;SDS011;59266;52.608;13.260;2024-01-30T08:11:13;15.40;;;5.63;;
71462;SDS011;59266;52.608;13.260;2024-01-30T08:13:40;15.63;;;6.32;;
71462;SDS011;59266;52.608;13.260;2024-01-30T08:16:06;14.55;;;6.38;;
71462;SDS011;59266;52.608;13.260;2024-01-30T08:18:34;14.52;;;6.03;;
71462;SDS011;59266;52.608;13.260;2024-01-30T08:21:03;15.70;;;6.07;;
71462;SDS011;59266;52.608;13.260;2024-01-30T08:23:29;16.45;;;6.65;;
71462;SDS011;59266;52.608;13.260;2024-01-30T08:25:57;15.73;;;6.30;;
71462;SDS011;59266;52.608;13.260;2024-01-30T08:28:30;16.73;;;6.25;;
71462;SDS011;59266;52.608;13.260;2024-01-30T08:30:57;18.60;;;6.65;;
71462;SDS011;59266;52.608;13.260;2024-01-30T08:33:23;13.75;;;5.80;;
71462;SDS011;59266;52.608;13.260;2024-01-30T08:35:50;14.80;;;6.32;;
71462;SDS011;59266;52.608;13.260;2024-01-30T08:38:17;12.70;;;5.15;;
71462;SDS011;59266;52.608;13.260;2024-01-30T08:40:46;15.70;;;6.25;;
71462;SDS011;59266;52.608;13.260;2024-01-30T08:43:12;16.17;;;6.10;;
71462;SDS011;59266;52.608;13.260;2024-01-30T08:45:40;15.05;;;6.05;;
71462;SDS011;59266;52.608;13.260;2024-01-30T08:48:07;15.77;;;6.57;;
71462;SDS011;59266;52.608;13.260;2024-01-30T08:50:34;14.45;;;5.78;;
71462;SDS011;59266;52.608;13.260;2024-01-30T08:53:01;16.13;;;5.43;;
71462;SDS011;59266;52.608;13.260;2024-01-30T08:55:27;16.65;;;6.00;;
71462;SDS011;59266;52.608;13.260;2024-01-30T08:57:55;15.95;;;6.15;;
71462;SDS011;59266;52.608;13.260;2024-01-30T09:00:21;12.80;;;5.93;;
71462;SDS011;59266;52.608;13.260;2024-01-30T09:02:48;14.57;;;5.95;;
71462;SDS011;59266;52.608;13.260;2024-01-30T09:05:15;16.15;;;5.22;;
71462;SDS011;59266;52.608;13.260;2024-01-30T09:07:42;13.60;;;5.43;;
71462;SDS011;59266;52.608;13.260;2024-01-30T09:10:11;18.77;;;7.22;;
71462;SDS011;59266;52.608;13.260;2024-01-30T09:12:40;15.48;;;7.20;;
71462;SDS011;59266;52.608;13.260;2024-01-30T09:15:06;15.13;;;5.53;;
71462;SDS011;59266;52.608;13.260;2024-01-30T09:17:33;16.42;;;6.10;;
71462;SDS011;59266;52.608;13.260;2024-01-30T09:20:00;15.70;;;6.43;;
71462;SDS011;59266;52.608;13.260;2024-01-30T09:22:26;13.10;;;6.00;;
71462;SDS011;59266;52.608;13.260;2024-01-30T09:24:53;14.82;;;6.53;;
71462;SDS011;59266;52.608;13.260;2024-01-30T09:27:21;13.73;;;5.80;;
71462;SDS011;59266;52.608;13.260;2024-01-30T09:29:50;14.65;;;6.35;;
71462;SDS011;59266;52.608;13.260;2024-01-30T09:32:19;13.23;;;6.20;;
71462;SDS011;59266;52.608;13.260;2024-01-30T09:34:46;12.98;;;5.55;;
71462;SDS011;59266;52.608;13.260;2024-01-30T09:37:16;17.85;;;6.13;;
71462;SDS011;59266;52.608;13.260;2024-01-30T09:39:48;15.90;;;6.53;;
71462;SDS011;59266;52.608;13.260;2024-01-30T09:44:59;15.90;;;6.32;;
71462;SDS011;59266;52.608;13.260;2024-01-30T09:47:26;15.30;;;6.13;;
71462;SDS011;59266;52.608;13.260;2024-01-30T09:49:53;16.63;;;6.20;;
71462;SDS011;59266;52.608;13.260;2024-01-30T09:52:21;19.85;;;6.60;;
71462;SDS011;59266;52.608;13.260;2024-01-30T09:54:49;13.25;;;6.20;;
71462;SDS011;59266;52.608;13.260;2024-01-30T09:57:18;13.70;;;5.97;;
71462;SDS011;59266;52.608;13.260;2024-01-30T09:59:45;13.88;;;5.95;;
71462;SDS011;59266;52.608;13.260;2024-01-30T10:02:12;18.42;;;6.65;;
71462;SDS011;59266;52.608;13.260;2024-01-30T10:04:39;18.42;;;6.13;;
71462;SDS011;59266;52.608;13.260;2024-01-30T10:07:15;16.50;;;5.80;;
71462;SDS011;59266;52.608;13.260;2024-01-30T10:09:42;12.18;;;6.03;;
71462;SDS011;59266;52.608;13.260;2024-01-30T10:12:09;18.60;;;5.85;;
71462;SDS011;59266;52.608;13.260;2024-01-30T10:14:39;13.43;;;5.63;;
71462;SDS011;59266;52.608;13.260;2024-01-30T10:17:10;12.82;;;5.47;;
71462;SDS011;59266;52.608;13.260;2024-01-30T10:19:53;16.10;;;6.32;;
71462;SDS011;59266;52.608;13.260;2024-01-30T10:22:22;12.13;;;5.15;;
71462;SDS011;59266;52.608;13.260;2024-01-30T10:24:49;15.50;;;5.95;;
71462;SDS011;59266;52.608;13.260;2024-01-30T10:27:16;14.90;;;5.97;;
71462;SDS011;59266;52.608;13.260;2024-01-30T10:29:51;14.95;;;5.60;;
71462;SDS011;59266;52.608;13.260;2024-01-30T10:32:18;15.02;;;5.80;;
71462;SDS011;59266;52.608;13.260;2024-01-30T10:34:46;14.88;;;6.03;;
71462;SDS011;59266;52.608;13.260;2024-01-30T10:37:13;15.00;;;5.68;;
71462;SDS011;59266;52.608;13.260;2024-01-30T10:39:44;14.73;;;5.47;;
71462;SDS011;59266;52.608;13.260;2024-01-30T10:42:21;12.00;;;5.22;;
71462;SDS011;59266;52.608;13.260;2024-01-30T10:44:56;13.70;;;5.90;;
71462;SDS011;59266;52.608;13.260;2024-01-30T10:47:42;11.88;;;4.57;;
71462;SDS011;59266;52.608;13.260;2024-01-30T10:50:14;15.68;;;5.57;;
71462;SDS011;59266;52.608;13.260;2024-01-30T10:52:41;11.65;;;5.43;;
71462;SDS011;59266;52.608;13.260;2024-01-30T10:55:08;12.07;;;4.95;;
71462;SDS011;59266;52.608;13.260;2024-01-30T10:57:36;11.98;;;5.13;;
71462;SDS011;59266;52.608;13.260;2024-01-30T11:00:12;13.98;;;5.35;;
71462;SDS011;59266;52.608;13.260;2024-01-30T11:02:45;14.20;;;5.88;;
71462;SDS011;59266;52.608;13.260;2024-01-30T11:05:12;13.07;;;4.80;;
71462;SDS011;59266;52.608;13.260;2024-01-30T11:07:42;12.68;;;4.40;;
71462;SDS011;59266;52.608;13.260;2024-01-30T11:10:11;12.55;;;4.65;;
71462;SDS011;59266;52.608;13.260;2024-01-30T11:12:41;11.25;;;5.05;;
71462;SDS011;59266;52.608;13.260;2024-01-30T11:15:13;15.68;;;5.97;;
71462;SDS011;59266;52.608;13.260;2024-01-30T11:20:29;10.25;;;4.95;;
71462;SDS011;59266;52.608;13.260;2024-01-30T11:23:01;11.90;;;5.20;;
71462;SDS011;59266;52.608;13.260;2024-01-30T11:25:32;11.63;;;5.18;;
71462;SDS011;59266;52.608;13.260;2024-01-30T11:27:59;10.80;;;4.97;;
71462;SDS011;59266;52.608;13.260;2024-01-30T11:30:27;15.05;;;5.70;;
71462;SDS011;59266;52.608;13.260;2024-01-30T11:33:08;11.02;;;5.32;;
71462;SDS011;59266;52.608;13.260;2024-01-30T11:35:39;12.85;;;5.63;;
71462;SDS011;59266;52.608;13.260;2024-01-30T11:38:11;10.70;;;4.72;;
71462;SDS011;59266;52.608;13.260;2024-01-30T11:40:40;13.85;;;5.45;;
71462;SDS011;59266;52.608;13.260;2024-01-30T11:43:08;12.00;;;5.45;;
71462;SDS011;59266;52.608;13.260;2024-01-30T11:45:35;11.52;;;5.20;;
71462;SDS011;59266;52.608;13.260;2024-01-30T11:48:03;11.00;;;4.70;;
71462;SDS011;59266;52.608;13.260;2024-01-30T11:50:38;12.02;;;5.35;;
71462;SDS011;59266;52.608;13.260;2024-01-30T11:53:09;12.50;;;5.43;;
71462;SDS011;59266;52.608;13.260;2024-01-30T11:55:37;11.95;;;5.32;;
71462;SDS011;59266;52.608;13.260;2024-01-30T11:58:04;11.88;;;4.88;;
71462;SDS011;59266;52.608;13.260;2024-01-30T12:00:31;11.95;;;5.18;;
71462;SDS011;59266;52.608;13.260;2024-01-30T12:03:02;12.20;;;5.03;;
71462;SDS011;59266;52.608;13.260;2024-01-30T12:05:30;13.38;;;5.75;;
71462;SDS011;59266;52.608;13.260;2024-01-30T12:07:57;14.82;;;6.13;;
71462;SDS011;59266;52.608;13.260;2024-01-30T12:10:28;13.70;;;5.78;;
71462;SDS011;59266;52.608;13.260;2024-01-30T12:12:55;12.40;;;4.97;;
71462;SDS011;59266;52.608;13.260;2024-01-30T12:15:24;12.68;;;5.55;;
71462;SDS011;59266;52.608;13.260;2024-01-30T12:17:52;15.65;;;5.88;;
71462;SDS011;59266;52.608;13.260;2024-01-30T12:20:19;12.15;;;5.43;;
71462;SDS011;59266;52.608;13.260;2024-01-30T12:23:08;12.95;;;5.13;;
71462;SDS011;59266;52.608;13.260;2024-01-30T12:25:37;12.48;;;5.68;;
71462;SDS011;59266;52.608;13.260;2024-01-30T12:28:05;12.65;;;5.68;;
71462;SDS011;59266;52.608;13.260;2024-01-30T12:30:32;13.30;;;5.82;;
71462;SDS011;59266;52.608;13.260;2024-01-30T12:33:01;11.93;;;4.85;;
71462;SDS011;59266;52.608;13.260;2024-01-30T12:35:34;11.63;;;5.80;;
71462;SDS011;59266;52.608;13.260;2024-01-30T12:38:14;12.27;;;5.53;;
71462;SDS011;59266;52.608;13.260;2024-01-30T12:40:41;13.70;;;5.20;;
71462;SDS011;59266;52.608;13.260;2024-01-30T12:43:09;12.23;;;5.10;;
71462;SDS011;59266;52.608;13.260;2024-01-30T12:45:36;12.63;;;5.25;;
71462;SDS011;59266;52.608;13.260;2024-01-30T12:48:03;11.32;;;5.35;;
71462;SDS011;59266;52.608;13.260;2024-01-30T12:50:29;11.50;;;6.03;;
71462;SDS011;59266;52.608;13.260;2024-01-30T12:52:56;12.93;;;5.57;;
71462;SDS011;59266;52.608;13.260;2024-01-30T12:55:23;10.63;;;5.30;;
71462;SDS011;59266;52.608;13.260;2024-01-30T12:57:50;12.88;;;5.88;;
71462;SDS011;59266;52.608;13.260;2024-01-30T13:00:17;13.07;;;5.47;;
71462;SDS011;59266;52.608;13.260;2024-01-30T13:02:44;14.05;;;5.72;;
71462;SDS011;59266;52.608;13.260;2024-01-30T13:05:11;13.32;;;5.70;;
71462;SDS011;59266;52.608;13.260;2024-01-30T13:07:41;14.60;;;5.60;;
71462;SDS011;59266;52.608;13.260;2024-01-30T13:10:14;12.18;;;5.25;;
71462;SDS011;59266;52.608;13.260;2024-01-30T13:12:41;13.38;;;5.32;;
71462;SDS011;59266;52.608;13.260;2024-01-30T13:15:08;12.60;;;5.45;;
71462;SDS011;59266;52.608;13.260;2024-01-30T13:17:38;14.13;;;5.63;;
71462;SDS011;59266;52.608;13.260;2024-01-30T13:20:05;15.13;;;6.32;;
71462;SDS011;59266;52.608;13.260;2024-01-30T13:22:37;14.45;;;5.47;;
71462;SDS011;59266;52.608;13.260;2024-01-30T13:25:06;11.57;;;5.07;;
71462;SDS011;59266;52.608;13.260;2024-01-30T13:27:33;14.15;;;5.93;;
71462;SDS011;59266;52.608;13.260;2024-01-30T13:30:00;11.95;;;5.60;;
71462;SDS011;59266;52.608;13.260;2024-01-30T13:32:30;14.23;;;5.93;;
71462;SDS011;59266;52.608;13.260;2024-01-30T13:34:57;13.93;;;5.75;;
71462;SDS011;59266;52.608;13.260;2024-01-30T13:37:24;15.80;;;5.82;;
71462;SDS011;59266;52.608;13.260;2024-01-30T13:39:51;14.32;;;5.45;;
71462;SDS011;59266;52.608;13.260;2024-01-30T13:42:18;13.50;;;5.60;;
71462;SDS011;59266;52.608;13.260;2024-01-30T13:44:45;12.48;;;4.93;;
71462;SDS011;59266;52.608;13.260;2024-01-30T13:47:12;12.80;;;5.18;;
71462;SDS011;59266;52.608;13.260;2024-01-30T13:49:38;12.70;;;5.47;;
71462;SDS011;59266;52.608;13.260;2024-01-30T13:52:05;13.20;;;5.60;;
71462;SDS011;59266;52.608;13.260;2024-01-30T13:54:32;13.43;;;4.88;;
71462;SDS011;59266;52.608;13.260;2024-01-30T13:56:59;14.38;;;5.25;;
71462;SDS011;59266;52.608;13.260;2024-01-30T13:59:26;13.65;;;5.57;;
71462;SDS011;59266;52.608;13.260;2024-01-30T14:01:53;11.88;;;4.72;;
71462;SDS011;59266;52.608;13.260;2024-01-30T14:04:19;11.73;;;5.25;;
71462;SDS011;59266;52.608;13.260;2024-01-30T14:06:46;11.57;;;5.45;;
71462;SDS011;59266;52.608;13.260;2024-01-30T14:09:25;13.07;;;5.50;;
71462;SDS011;59266;52.608;13.260;2024-01-30T14:11:52;12.70;;;5.60;;
71462;SDS011;59266;52.608;13.260;2024-01-30T14:14:19;13.00;;;5.60;;
71462;SDS011;59266;52.608;13.260;2024-01-30T14:16:46;12.75;;;5.25;;
71462;SDS011;59266;52.608;13.260;2024-01-30T14:19:12;12.75;;;5.53;;
71462;SDS011;59266;52.608;13.260;2024-01-30T14:21:39;12.63;;;5.32;;
71462;SDS011;59266;52.608;13.260;2024-01-30T14:24:07;18.48;;;5.25;;
71462;SDS011;59266;52.608;13.260;2024-01-30T14:26:33;14.35;;;5.40;;
71462;SDS011;59266;52.608;13.260;2024-01-30T14:29:00;14.32;;;5.78;;
71462;SDS011;59266;52.608;13.260;2024-01-30T14:31:27;14.57;;;5.57;;